sensor_id;sensor_type;location;lat;lon;timestamp;P1;durP1;ratioP1;P2;durP2;ratioP2
44026;SDS011;29696;55.698;37.460;2023-02-28T00:02:05;10.17;;;6.33;;
44026;SDS011;29696;55.698;37.460;2023-02-28T00:04:32;14.50;;;6.70;;
44026;SDS011;29696;55.698;37.460;2023-02-28T00:06:58;10.17;;;8.03;;
44026;SDS011;29696;55.698;37.460;2023-02-28T00:09:24;10.73;;;7.07;;
44026;SDS011;29696;55.698;37.460;2023-02-28T00:11:50;11.47;;;7.93;;
44026;SDS011;29696;55.698;37.460;2023-02-28T00:40:13;16.17;;;7.70;;
44026;SDS011;29696;55.698;37.460;2023-02-28T00:42:39;7.73;;;6.90;;
44026;SDS011;29696;55.698;37.460;2023-02-28T00:45:07;10.57;;;8.07;;
44026;SDS011;29696;55.698;37.460;2023-02-28T00:47:37;7.23;;;5.73;;
44026;SDS011;29696;55.698;37.460;2023-02-28T00:50:04;14.10;;;7.00;;
44026;SDS011;29696;55.698;37.460;2023-02-28T00:52:31;8.47;;;6.40;;
44026;SDS011;29696;55.698;37.460;2023-02-28T00:54:57;10.37;;;6.47;;
44026;SDS011;29696;55.698;37.460;2023-02-28T00:57:24;11.20;;;6.27;;
44026;SDS011;29696;55.698;37.460;2023-02-28T00:59:50;9.93;;;6.63;;
44026;SDS011;29696;55.698;37.460;2023-02-28T01:02:16;15.40;;;7.90;;
44026;SDS011;29696;55.698;37.460;2023-02-28T01:04:43;10.63;;;6.77;;
44026;SDS011;29696;55.698;37.460;2023-02-28T01:07:10;9.73;;;6.17;;
44026;SDS011;29696;55.698;37.460;2023-02-28T01:09:36;10.77;;;6.50;;
44026;SDS011;29696;55.698;37.460;2023-02-28T01:12:04;10.23;;;6.27;;
44026;SDS011;29696;55.698;37.460;2023-02-28T01:14:30;9.87;;;6.67;;
44026;SDS011;29696;55.698;37.460;2023-02-28T01:16:56;8.77;;;5.80;;
44026;SDS011;29696;55.698;37.460;2023-02-28T01:19:24;10.17;;;5.67;;
44026;SDS011;29696;55.698;37.460;2023-02-28T01:21:51;8.63;;;6.80;;
44026;SDS011;29696;55.698;37.460;2023-02-28T01:24:17;9.33;;;6.30;;
44026;SDS011;29696;55.698;37.460;2023-02-28T01:26:44;9.67;;;6.60;;
44026;SDS011;29696;55.698;37.460;2023-02-28T01:29:10;9.97;;;5.50;;
44026;SDS011;29696;55.698;37.460;2023-02-28T01:31:37;7.13;;;3.90;;
44026;SDS011;29696;55.698;37.460;2023-02-28T01:34:03;5.03;;;4.20;;
44026;SDS011;29696;55.698;37.460;2023-02-28T01:36:29;8.77;;;4.80;;
44026;SDS011;29696;55.698;37.460;2023-02-28T01:38:56;7.83;;;6.83;;
44026;SDS011;29696;55.698;37.460;2023-02-28T01:41:24;9.53;;;4.43;;
44026;SDS011;29696;55.698;37.460;2023-02-28T01:44:00;5.87;;;4.07;;
44026;SDS011;29696;55.698;37.460;2023-02-28T01:46:32;7.73;;;4.83;;
44026;SDS011;29696;55.698;37.460;2023-02-28T01:49:11;7.77;;;4.43;;
44026;SDS011;29696;55.698;37.460;2023-02-28T01:51:42;6.90;;;4.30;;
44026;SDS011;29696;55.698;37.460;2023-02-28T01:54:12;4.90;;;4.20;;
44026;SDS011;29696;55.698;37.460;2023-02-28T01:56:47;6.37;;;4.40;;
44026;SDS011;29696;55.698;37.460;2023-02-28T01:59:27;14.93;;;6.10;;
44026;SDS011;29696;55.698;37.460;2023-02-28T02:02:01;10.43;;;6.33;;
44026;SDS011;29696;55.698;37.460;2023-02-28T02:04:32;11.00;;;6.87;;
44026;SDS011;29696;55.698;37.460;2023-02-28T02:07:04;8.67;;;6.77;;
44026;SDS011;29696;55.698;37.460;2023-02-28T02:09:31;9.20;;;6.27;;
44026;SDS011;29696;55.698;37.460;2023-02-28T02:11:57;9.73;;;5.67;;
44026;SDS011;29696;55.698;37.460;2023-02-28T02:14:43;8.30;;;6.15;;
44026;SDS011;29696;55.698;37.460;2023-02-28T02:30:02;7.53;;;5.27;;
44026;SDS011;29696;55.698;37.460;2023-02-28T02:36:33;9.33;;;5.87;;
44026;SDS011;29696;55.698;37.460;2023-02-28T02:39:10;8.50;;;5.87;;
44026;SDS011;29696;55.698;37.460;2023-02-28T02:41:54;5.40;;;4.63;;
44026;SDS011;29696;55.698;37.460;2023-02-28T02:47:55;6.33;;;4.67;;
44026;SDS011;29696;55.698;37.460;2023-02-28T02:50:26;8.37;;;5.47;;
44026;SDS011;29696;55.698;37.460;2023-02-28T02:52:58;6.47;;;4.67;;
44026;SDS011;29696;55.698;37.460;2023-02-28T02:55:29;7.50;;;5.00;;
44026;SDS011;29696;55.698;37.460;2023-02-28T02:58:02;8.23;;;5.40;;
44026;SDS011;29696;55.698;37.460;2023-02-28T03:00:36;8.10;;;5.77;;
44026;SDS011;29696;55.698;37.460;2023-02-28T03:03:05;6.67;;;5.97;;
44026;SDS011;29696;55.698;37.460;2023-02-28T03:05:39;7.50;;;5.67;;
44026;SDS011;29696;55.698;37.460;2023-02-28T03:08:10;7.68;;;4.70;;
44026;SDS011;29696;55.698;37.460;2023-02-28T03:10:41;5.83;;;4.23;;
44026;SDS011;29696;55.698;37.460;2023-02-28T03:13:19;6.87;;;4.87;;
44026;SDS011;29696;55.698;37.460;2023-02-28T03:29:05;6.00;;;4.13;;
44026;SDS011;29696;55.698;37.460;2023-02-28T03:31:43;7.15;;;3.38;;
44026;SDS011;29696;55.698;37.460;2023-02-28T03:34:22;6.53;;;4.07;;
44026;SDS011;29696;55.698;37.460;2023-02-28T03:37:02;5.57;;;3.83;;
44026;SDS011;29696;55.698;37.460;2023-02-28T03:39:36;7.00;;;4.80;;
44026;SDS011;29696;55.698;37.460;2023-02-28T03:42:08;8.07;;;5.23;;
44026;SDS011;29696;55.698;37.460;2023-02-28T03:44:41;5.50;;;4.63;;
44026;SDS011;29696;55.698;37.460;2023-02-28T03:47:19;6.47;;;4.40;;
44026;SDS011;29696;55.698;37.460;2023-02-28T03:49:59;6.23;;;4.53;;
44026;SDS011;29696;55.698;37.460;2023-02-28T03:52:40;7.30;;;3.87;;
44026;SDS011;29696;55.698;37.460;2023-02-28T03:55:11;6.57;;;3.73;;
44026;SDS011;29696;55.698;37.460;2023-02-28T03:58:01;6.57;;;4.23;;
44026;SDS011;29696;55.698;37.460;2023-02-28T04:00:49;6.37;;;3.87;;
44026;SDS011;29696;55.698;37.460;2023-02-28T04:03:34;4.57;;;3.20;;
44026;SDS011;29696;55.698;37.460;2023-02-28T04:06:02;6.73;;;4.43;;
44026;SDS011;29696;55.698;37.460;2023-02-28T04:08:31;5.33;;;3.90;;
44026;SDS011;29696;55.698;37.460;2023-02-28T04:11:01;5.00;;;3.50;;
44026;SDS011;29696;55.698;37.460;2023-02-28T04:13:42;6.75;;;4.88;;
44026;SDS011;29696;55.698;37.460;2023-02-28T04:16:09;7.00;;;4.70;;
44026;SDS011;29696;55.698;37.460;2023-02-28T04:18:39;6.03;;;3.70;;
44026;SDS011;29696;55.698;37.460;2023-02-28T04:21:06;5.90;;;4.40;;
44026;SDS011;29696;55.698;37.460;2023-02-28T04:23:32;7.07;;;5.40;;
44026;SDS011;29696;55.698;37.460;2023-02-28T04:25:59;6.97;;;4.50;;
44026;SDS011;29696;55.698;37.460;2023-02-28T04:28:25;6.87;;;4.27;;
44026;SDS011;29696;55.698;37.460;2023-02-28T04:30:59;5.97;;;3.77;;
44026;SDS011;29696;55.698;37.460;2023-02-28T04:33:28;5.00;;;3.50;;
44026;SDS011;29696;55.698;37.460;2023-02-28T04:35:58;5.30;;;4.80;;
44026;SDS011;29696;55.698;37.460;2023-02-28T04:38:33;7.23;;;4.60;;
44026;SDS011;29696;55.698;37.460;2023-02-28T04:41:01;5.90;;;4.43;;
44026;SDS011;29696;55.698;37.460;2023-02-28T04:43:28;7.07;;;4.90;;
44026;SDS011;29696;55.698;37.460;2023-02-28T04:45:56;6.60;;;4.47;;
44026;SDS011;29696;55.698;37.460;2023-02-28T04:48:24;5.80;;;4.27;;
44026;SDS011;29696;55.698;37.460;2023-02-28T04:50:51;7.10;;;6.10;;
44026;SDS011;29696;55.698;37.460;2023-02-28T04:53:18;5.93;;;3.87;;
44026;SDS011;29696;55.698;37.460;2023-02-28T04:55:44;6.53;;;4.60;;
44026;SDS011;29696;55.698;37.460;2023-02-28T04:58:12;4.93;;;4.13;;
44026;SDS011;29696;55.698;37.460;2023-02-28T05:00:41;6.90;;;3.77;;
44026;SDS011;29696;55.698;37.460;2023-02-28T05:03:08;4.93;;;4.43;;
44026;SDS011;29696;55.698;37.460;2023-02-28T05:05:35;4.07;;;3.67;;
44026;SDS011;29696;55.698;37.460;2023-02-28T05:08:01;5.83;;;4.50;;
44026;SDS011;29696;55.698;37.460;2023-02-28T05:10:28;4.77;;;3.70;;
44026;SDS011;29696;55.698;37.460;2023-02-28T05:12:54;5.03;;;4.03;;
44026;SDS011;29696;55.698;37.460;2023-02-28T05:15:20;3.80;;;3.20;;
44026;SDS011;29696;55.698;37.460;2023-02-28T05:17:47;4.00;;;3.30;;
44026;SDS011;29696;55.698;37.460;2023-02-28T05:20:13;4.80;;;3.57;;
44026;SDS011;29696;55.698;37.460;2023-02-28T05:22:40;5.50;;;3.80;;
44026;SDS011;29696;55.698;37.460;2023-02-28T05:25:08;4.27;;;3.77;;
44026;SDS011;29696;55.698;37.460;2023-02-28T05:27:39;4.97;;;4.47;;
44026;SDS011;29696;55.698;37.460;2023-02-28T05:30:06;4.40;;;3.53;;
44026;SDS011;29696;55.698;37.460;2023-02-28T05:32:32;6.20;;;3.27;;
44026;SDS011;29696;55.698;37.460;2023-02-28T05:34:59;3.93;;;3.30;;
44026;SDS011;29696;55.698;37.460;2023-02-28T05:37:25;4.67;;;2.97;;
44026;SDS011;29696;55.698;37.460;2023-02-28T05:39:51;3.77;;;3.10;;
44026;SDS011;29696;55.698;37.460;2023-02-28T05:42:18;5.27;;;4.40;;
44026;SDS011;29696;55.698;37.460;2023-02-28T05:44:44;6.93;;;3.50;;
44026;SDS011;29696;55.698;37.460;2023-02-28T05:47:10;5.63;;;3.23;;
44026;SDS011;29696;55.698;37.460;2023-02-28T05:49:40;8.97;;;3.47;;
44026;SDS011;29696;55.698;37.460;2023-02-28T05:52:07;8.43;;;4.30;;
44026;SDS011;29696;55.698;37.460;2023-02-28T05:54:33;3.70;;;3.30;;
44026;SDS011;29696;55.698;37.460;2023-02-28T05:56:59;6.13;;;3.30;;
44026;SDS011;29696;55.698;37.460;2023-02-28T05:59:26;4.50;;;3.40;;
44026;SDS011;29696;55.698;37.460;2023-02-28T06:01:52;4.50;;;3.50;;
44026;SDS011;29696;55.698;37.460;2023-02-28T06:04:19;3.83;;;2.85;;
44026;SDS011;29696;55.698;37.460;2023-02-28T06:06:46;4.78;;;3.97;;
44026;SDS011;29696;55.698;37.460;2023-02-28T06:09:13;6.95;;;3.45;;
44026;SDS011;29696;55.698;37.460;2023-02-28T06:11:40;4.72;;;3.40;;
44026;SDS011;29696;55.698;37.460;2023-02-28T06:14:09;19.10;;;3.92;;
44026;SDS011;29696;55.698;37.460;2023-02-28T06:16:41;4.82;;;3.63;;
44026;SDS011;29696;55.698;37.460;2023-02-28T06:19:08;4.40;;;3.30;;
44026;SDS011;29696;55.698;37.460;2023-02-28T06:21:35;4.53;;;3.47;;
44026;SDS011;29696;55.698;37.460;2023-02-28T06:24:02;4.45;;;3.90;;
44026;SDS011;29696;55.698;37.460;2023-02-28T06:26:29;5.70;;;3.78;;
44026;SDS011;29696;55.698;37.460;2023-02-28T06:28:56;4.38;;;3.45;;
44026;SDS011;29696;55.698;37.460;2023-02-28T06:31:22;5.47;;;3.88;;
44026;SDS011;29696;55.698;37.460;2023-02-28T06:33:51;8.70;;;3.87;;
44026;SDS011;29696;55.698;37.460;2023-02-28T06:36:17;6.07;;;4.13;;
44026;SDS011;29696;55.698;37.460;2023-02-28T06:38:44;4.67;;;3.80;;
44026;SDS011;29696;55.698;37.460;2023-02-28T06:41:11;6.70;;;3.40;;
44026;SDS011;29696;55.698;37.460;2023-02-28T06:43:38;3.17;;;2.77;;
44026;SDS011;29696;55.698;37.460;2023-02-28T06:46:08;7.00;;;4.30;;
44026;SDS011;29696;55.698;37.460;2023-02-28T06:48:37;11.20;;;5.33;;
44026;SDS011;29696;55.698;37.460;2023-02-28T06:51:04;25.43;;;7.60;;
44026;SDS011;29696;55.698;37.460;2023-02-28T06:53:41;8.73;;;4.90;;
44026;SDS011;29696;55.698;37.460;2023-02-28T06:56:09;10.60;;;5.17;;
44026;SDS011;29696;55.698;37.460;2023-02-28T06:58:37;9.50;;;4.97;;
44026;SDS011;29696;55.698;37.460;2023-02-28T07:01:05;8.67;;;4.53;;
44026;SDS011;29696;55.698;37.460;2023-02-28T07:03:31;8.23;;;3.87;;
44026;SDS011;29696;55.698;37.460;2023-02-28T07:05:58;5.87;;;3.80;;
44026;SDS011;29696;55.698;37.460;2023-02-28T07:08:25;9.43;;;5.17;;
44026;SDS011;29696;55.698;37.460;2023-02-28T07:10:53;8.97;;;4.27;;
44026;SDS011;29696;55.698;37.460;2023-02-28T07:13:23;6.87;;;4.00;;
44026;SDS011;29696;55.698;37.460;2023-02-28T07:15:53;7.60;;;4.23;;
44026;SDS011;29696;55.698;37.460;2023-02-28T07:18:24;5.43;;;4.40;;
44026;SDS011;29696;55.698;37.460;2023-02-28T07:20:51;6.47;;;4.40;;
44026;SDS011;29696;55.698;37.460;2023-02-28T07:23:17;7.23;;;4.10;;
44026;SDS011;29696;55.698;37.460;2023-02-28T07:25:44;7.00;;;4.13;;
44026;SDS011;29696;55.698;37.460;2023-02-28T07:28:12;5.73;;;3.77;;
44026;SDS011;29696;55.698;37.460;2023-02-28T07:30:39;6.43;;;4.83;;
44026;SDS011;29696;55.698;37.460;2023-02-28T07:33:05;7.10;;;4.70;;
44026;SDS011;29696;55.698;37.460;2023-02-28T07:35:32;5.17;;;4.57;;
44026;SDS011;29696;55.698;37.460;2023-02-28T07:37:58;8.50;;;4.37;;
44026;SDS011;29696;55.698;37.460;2023-02-28T07:40:25;7.17;;;4.10;;
44026;SDS011;29696;55.698;37.460;2023-02-28T07:42:52;5.13;;;3.87;;
44026;SDS011;29696;55.698;37.460;2023-02-28T07:45:19;6.93;;;4.37;;
44026;SDS011;29696;55.698;37.460;2023-02-28T07:47:45;5.67;;;3.90;;
44026;SDS011;29696;55.698;37.460;2023-02-28T07:50:13;6.90;;;4.30;;
44026;SDS011;29696;55.698;37.460;2023-02-28T07:52:41;4.70;;;3.37;;
44026;SDS011;29696;55.698;37.460;2023-02-28T07:55:08;6.33;;;4.17;;
44026;SDS011;29696;55.698;37.460;2023-02-28T07:57:35;6.60;;;3.73;;
44026;SDS011;29696;55.698;37.460;2023-02-28T08:00:05;7.73;;;3.93;;
44026;SDS011;29696;55.698;37.460;2023-02-28T08:02:37;5.90;;;4.10;;
44026;SDS011;29696;55.698;37.460;2023-02-28T08:05:04;7.20;;;3.57;;
44026;SDS011;29696;55.698;37.460;2023-02-28T08:07:31;6.13;;;3.97;;
44026;SDS011;29696;55.698;37.460;2023-02-28T08:09:59;7.43;;;3.87;;
44026;SDS011;29696;55.698;37.460;2023-02-28T08:12:26;5.63;;;4.57;;
44026;SDS011;29696;55.698;37.460;2023-02-28T08:14:52;6.43;;;4.27;;
44026;SDS011;29696;55.698;37.460;2023-02-28T08:17:18;10.03;;;3.90;;
44026;SDS011;29696;55.698;37.460;2023-02-28T08:19:45;9.03;;;4.40;;
44026;SDS011;29696;55.698;37.460;2023-02-28T08:22:12;5.83;;;3.63;;
44026;SDS011;29696;55.698;37.460;2023-02-28T08:24:40;5.57;;;3.93;;
44026;SDS011;29696;55.698;37.460;2023-02-28T08:27:08;9.87;;;4.03;;
44026;SDS011;29696;55.698;37.460;2023-02-28T08:29:36;6.30;;;4.67;;
44026;SDS011;29696;55.698;37.460;2023-02-28T08:32:04;8.13;;;6.07;;
44026;SDS011;29696;55.698;37.460;2023-02-28T08:34:31;6.13;;;4.53;;
44026;SDS011;29696;55.698;37.460;2023-02-28T08:36:57;6.00;;;4.70;;
44026;SDS011;29696;55.698;37.460;2023-02-28T08:39:24;7.27;;;4.33;;
44026;SDS011;29696;55.698;37.460;2023-02-28T08:41:50;8.03;;;4.67;;
44026;SDS011;29696;55.698;37.460;2023-02-28T08:44:16;6.90;;;3.90;;
44026;SDS011;29696;55.698;37.460;2023-02-28T08:46:43;5.83;;;3.53;;
44026;SDS011;29696;55.698;37.460;2023-02-28T08:49:09;8.60;;;3.83;;
44026;SDS011;29696;55.698;37.460;2023-02-28T08:51:36;5.87;;;4.60;;
44026;SDS011;29696;55.698;37.460;2023-02-28T08:54:02;7.97;;;4.50;;
44026;SDS011;29696;55.698;37.460;2023-02-28T08:56:29;7.53;;;4.60;;
44026;SDS011;29696;55.698;37.460;2023-02-28T08:58:56;7.07;;;4.87;;
44026;SDS011;29696;55.698;37.460;2023-02-28T09:01:27;9.87;;;4.70;;
44026;SDS011;29696;55.698;37.460;2023-02-28T09:03:55;6.27;;;4.20;;
44026;SDS011;29696;55.698;37.460;2023-02-28T09:06:23;8.13;;;4.63;;
44026;SDS011;29696;55.698;37.460;2023-02-28T09:08:51;5.17;;;3.90;;
44026;SDS011;29696;55.698;37.460;2023-02-28T09:11:18;4.60;;;2.77;;
44026;SDS011;29696;55.698;37.460;2023-02-28T09:13:45;3.27;;;2.87;;
44026;SDS011;29696;55.698;37.460;2023-02-28T09:16:13;4.87;;;3.40;;
44026;SDS011;29696;55.698;37.460;2023-02-28T09:18:42;6.53;;;2.83;;
44026;SDS011;29696;55.698;37.460;2023-02-28T09:21:10;8.50;;;2.93;;
44026;SDS011;29696;55.698;37.460;2023-02-28T09:23:40;5.70;;;3.73;;
44026;SDS011;29696;55.698;37.460;2023-02-28T09:26:07;4.00;;;2.90;;
44026;SDS011;29696;55.698;37.460;2023-02-28T09:28:34;5.40;;;3.67;;
44026;SDS011;29696;55.698;37.460;2023-02-28T09:31:00;5.03;;;3.10;;
44026;SDS011;29696;55.698;37.460;2023-02-28T09:33:27;6.07;;;3.80;;
44026;SDS011;29696;55.698;37.460;2023-02-28T09:35:57;5.23;;;3.43;;
44026;SDS011;29696;55.698;37.460;2023-02-28T09:38:26;3.83;;;3.07;;
44026;SDS011;29696;55.698;37.460;2023-02-28T09:40:55;4.57;;;3.10;;
44026;SDS011;29696;55.698;37.460;2023-02-28T09:43:25;6.53;;;4.00;;
44026;SDS011;29696;55.698;37.460;2023-02-28T09:49:05;5.77;;;3.53;;
44026;SDS011;29696;55.698;37.460;2023-02-28T09:51:43;4.63;;;2.87;;
44026;SDS011;29696;55.698;37.460;2023-02-28T09:54:28;4.67;;;3.40;;
44026;SDS011;29696;55.698;37.460;2023-02-28T09:57:07;4.10;;;2.77;;
44026;SDS011;29696;55.698;37.460;2023-02-28T09:59:48;2.97;;;2.53;;
44026;SDS011;29696;55.698;37.460;2023-02-28T10:06:22;5.17;;;2.27;;
44026;SDS011;29696;55.698;37.460;2023-02-28T10:09:04;4.73;;;3.43;;
44026;SDS011;29696;55.698;37.460;2023-02-28T10:11:35;5.40;;;2.97;;
44026;SDS011;29696;55.698;37.460;2023-02-28T10:14:13;2.97;;;2.50;;
44026;SDS011;29696;55.698;37.460;2023-02-28T10:16:47;4.57;;;2.57;;
44026;SDS011;29696;55.698;37.460;2023-02-28T10:19:30;5.47;;;3.87;;
44026;SDS011;29696;55.698;37.460;2023-02-28T10:22:23;5.03;;;3.30;;
44026;SDS011;29696;55.698;37.460;2023-02-28T10:24:54;4.27;;;2.50;;
44026;SDS011;29696;55.698;37.460;2023-02-28T10:27:29;6.73;;;3.80;;
44026;SDS011;29696;55.698;37.460;2023-02-28T10:29:58;5.50;;;3.60;;
44026;SDS011;29696;55.698;37.460;2023-02-28T10:32:30;5.53;;;3.43;;
44026;SDS011;29696;55.698;37.460;2023-02-28T10:38:05;4.47;;;3.20;;
44026;SDS011;29696;55.698;37.460;2023-02-28T10:40:41;6.07;;;3.33;;
44026;SDS011;29696;55.698;37.460;2023-02-28T10:43:28;5.73;;;3.83;;
44026;SDS011;29696;55.698;37.460;2023-02-28T10:49:00;7.23;;;3.57;;
44026;SDS011;29696;55.698;37.460;2023-02-28T10:51:39;7.60;;;3.53;;
44026;SDS011;29696;55.698;37.460;2023-02-28T10:54:17;5.87;;;3.73;;
44026;SDS011;29696;55.698;37.460;2023-02-28T10:56:56;5.10;;;3.43;;
44026;SDS011;29696;55.698;37.460;2023-02-28T10:59:32;6.53;;;3.43;;
44026;SDS011;29696;55.698;37.460;2023-02-28T11:01:59;4.60;;;3.30;;
44026;SDS011;29696;55.698;37.460;2023-02-28T11:07:21;5.23;;;3.93;;
44026;SDS011;29696;55.698;37.460;2023-02-28T11:09:51;5.20;;;3.43;;
44026;SDS011;29696;55.698;37.460;2023-02-28T11:12:20;5.17;;;4.30;;
44026;SDS011;29696;55.698;37.460;2023-02-28T11:15:20;5.20;;;3.50;;
44026;SDS011;29696;55.698;37.460;2023-02-28T11:18:00;4.70;;;3.20;;
44026;SDS011;29696;55.698;37.460;2023-02-28T11:20:31;4.80;;;3.40;;
44026;SDS011;29696;55.698;37.460;2023-02-28T11:23:00;5.13;;;3.37;;
44026;SDS011;29696;55.698;37.460;2023-02-28T11:25:33;5.13;;;3.60;;
44026;SDS011;29696;55.698;37.460;2023-02-28T11:28:03;5.30;;;3.13;;
44026;SDS011;29696;55.698;37.460;2023-02-28T11:30:33;5.93;;;3.10;;
44026;SDS011;29696;55.698;37.460;2023-02-28T11:33:25;4.33;;;3.17;;
44026;SDS011;29696;55.698;37.460;2023-02-28T11:35:49;7.37;;;4.53;;
44026;SDS011;29696;55.698;37.460;2023-02-28T11:38:17;5.03;;;4.27;;
44026;SDS011;29696;55.698;37.460;2023-02-28T11:47:27;4.17;;;3.50;;
44026;SDS011;29696;55.698;37.460;2023-02-28T11:56:38;6.70;;;3.67;;
44026;SDS011;29696;55.698;37.460;2023-02-28T12:08:51;5.37;;;4.07;;
44026;SDS011;29696;55.698;37.460;2023-02-28T12:28:08;4.90;;;3.37;;
44026;SDS011;29696;55.698;37.460;2023-02-28T12:30:38;5.57;;;4.70;;
44026;SDS011;29696;55.698;37.460;2023-02-28T12:33:15;4.60;;;3.47;;
44026;SDS011;29696;55.698;37.460;2023-02-28T12:38:39;4.90;;;3.83;;
44026;SDS011;29696;55.698;37.460;2023-02-28T12:41:12;5.27;;;4.10;;
44026;SDS011;29696;55.698;37.460;2023-02-28T12:43:54;7.63;;;4.73;;
44026;SDS011;29696;55.698;37.460;2023-02-28T12:49:31;5.77;;;4.10;;
44026;SDS011;29696;55.698;37.460;2023-02-28T12:53:03;4.93;;;3.83;;
44026;SDS011;29696;55.698;37.460;2023-02-28T12:55:40;13.17;;;4.50;;
44026;SDS011;29696;55.698;37.460;2023-02-28T13:01:17;8.40;;;3.73;;
44026;SDS011;29696;55.698;37.460;2023-02-28T13:10:19;4.53;;;3.90;;
44026;SDS011;29696;55.698;37.460;2023-02-28T13:12:49;7.47;;;3.57;;
44026;SDS011;29696;55.698;37.460;2023-02-28T13:15:18;6.90;;;4.00;;
44026;SDS011;29696;55.698;37.460;2023-02-28T13:17:53;4.47;;;3.37;;
44026;SDS011;29696;55.698;37.460;2023-02-28T13:20:34;7.25;;;4.03;;
44026;SDS011;29696;55.698;37.460;2023-02-28T13:23:02;6.90;;;3.83;;
44026;SDS011;29696;55.698;37.460;2023-02-28T13:31:31;5.47;;;3.40;;
44026;SDS011;29696;55.698;37.460;2023-02-28T13:34:12;5.17;;;3.63;;
44026;SDS011;29696;55.698;37.460;2023-02-28T13:36:40;4.73;;;3.90;;
44026;SDS011;29696;55.698;37.460;2023-02-28T13:45:29;8.77;;;4.03;;
44026;SDS011;29696;55.698;37.460;2023-02-28T13:47:58;4.57;;;3.33;;
44026;SDS011;29696;55.698;37.460;2023-02-28T13:50:33;6.27;;;3.23;;
44026;SDS011;29696;55.698;37.460;2023-02-28T13:59:55;4.13;;;3.00;;
44026;SDS011;29696;55.698;37.460;2023-02-28T14:05:32;5.80;;;4.47;;
44026;SDS011;29696;55.698;37.460;2023-02-28T14:11:02;4.97;;;3.07;;
44026;SDS011;29696;55.698;37.460;2023-02-28T14:13:38;4.77;;;3.13;;
44026;SDS011;29696;55.698;37.460;2023-02-28T14:16:11;6.80;;;4.30;;
44026;SDS011;29696;55.698;37.460;2023-02-28T14:18:50;4.67;;;3.17;;
44026;SDS011;29696;55.698;37.460;2023-02-28T14:21:32;6.43;;;2.97;;
44026;SDS011;29696;55.698;37.460;2023-02-28T14:24:22;4.53;;;3.20;;
44026;SDS011;29696;55.698;37.460;2023-02-28T14:34:35;4.30;;;3.57;;
44026;SDS011;29696;55.698;37.460;2023-02-28T14:37:02;5.20;;;3.17;;
44026;SDS011;29696;55.698;37.460;2023-02-28T14:39:30;3.87;;;3.23;;
44026;SDS011;29696;55.698;37.460;2023-02-28T14:41:58;5.67;;;3.00;;
44026;SDS011;29696;55.698;37.460;2023-02-28T14:44:30;3.63;;;3.20;;
44026;SDS011;29696;55.698;37.460;2023-02-28T14:47:01;4.53;;;3.30;;
44026;SDS011;29696;55.698;37.460;2023-02-28T14:52:12;4.17;;;3.27;;
44026;SDS011;29696;55.698;37.460;2023-02-28T14:54:43;4.53;;;3.00;;
44026;SDS011;29696;55.698;37.460;2023-02-28T14:57:23;4.83;;;3.37;;
44026;SDS011;29696;55.698;37.460;2023-02-28T15:00:22;10.50;;;3.47;;
44026;SDS011;29696;55.698;37.460;2023-02-28T15:02:54;5.07;;;3.60;;
44026;SDS011;29696;55.698;37.460;2023-02-28T15:08:12;4.60;;;3.07;;
44026;SDS011;29696;55.698;37.460;2023-02-28T15:10:54;4.10;;;3.20;;
44026;SDS011;29696;55.698;37.460;2023-02-28T15:13:23;5.40;;;4.13;;
44026;SDS011;29696;55.698;37.460;2023-02-28T15:16:03;4.47;;;3.47;;
44026;SDS011;29696;55.698;37.460;2023-02-28T15:21:43;8.67;;;3.97;;
44026;SDS011;29696;55.698;37.460;2023-02-28T15:24:17;5.67;;;3.13;;
44026;SDS011;29696;55.698;37.460;2023-02-28T15:27:07;3.50;;;2.70;;
44026;SDS011;29696;55.698;37.460;2023-02-28T15:29:48;6.00;;;3.23;;
44026;SDS011;29696;55.698;37.460;2023-02-28T15:32:25;3.77;;;3.07;;
44026;SDS011;29696;55.698;37.460;2023-02-28T15:34:54;4.53;;;3.03;;
44026;SDS011;29696;55.698;37.460;2023-02-28T15:37:55;4.10;;;2.83;;
44026;SDS011;29696;55.698;37.460;2023-02-28T15:40:27;3.57;;;3.00;;
44026;SDS011;29696;55.698;37.460;2023-02-28T15:43:13;4.70;;;2.97;;
44026;SDS011;29696;55.698;37.460;2023-02-28T15:46:04;4.87;;;3.83;;
44026;SDS011;29696;55.698;37.460;2023-02-28T15:48:34;4.90;;;3.00;;
44026;SDS011;29696;55.698;37.460;2023-02-28T15:51:20;7.30;;;4.20;;
44026;SDS011;29696;55.698;37.460;2023-02-28T15:53:50;6.00;;;3.00;;
44026;SDS011;29696;55.698;37.460;2023-02-28T15:56:23;3.10;;;2.60;;
44026;SDS011;29696;55.698;37.460;2023-02-28T15:58:55;5.30;;;3.47;;
44026;SDS011;29696;55.698;37.460;2023-02-28T16:01:24;4.27;;;3.60;;
44026;SDS011;29696;55.698;37.460;2023-02-28T16:03:54;4.37;;;3.27;;
44026;SDS011;29696;55.698;37.460;2023-02-28T16:09:44;3.80;;;3.10;;
44026;SDS011;29696;55.698;37.460;2023-02-28T16:12:12;3.83;;;2.43;;
44026;SDS011;29696;55.698;37.460;2023-02-28T16:14:39;3.67;;;2.53;;
44026;SDS011;29696;55.698;37.460;2023-02-28T16:17:18;5.47;;;3.00;;
44026;SDS011;29696;55.698;37.460;2023-02-28T16:19:47;3.27;;;2.57;;
44026;SDS011;29696;55.698;37.460;2023-02-28T16:22:14;3.50;;;2.83;;
44026;SDS011;29696;55.698;37.460;2023-02-28T16:24:40;5.27;;;3.37;;
44026;SDS011;29696;55.698;37.460;2023-02-28T16:27:14;3.60;;;2.90;;
44026;SDS011;29696;55.698;37.460;2023-02-28T16:29:56;2.53;;;2.33;;
44026;SDS011;29696;55.698;37.460;2023-02-28T16:32:22;3.67;;;2.67;;
44026;SDS011;29696;55.698;37.460;2023-02-28T16:34:49;2.73;;;2.47;;
44026;SDS011;29696;55.698;37.460;2023-02-28T16:37:16;4.30;;;2.97;;
44026;SDS011;29696;55.698;37.460;2023-02-28T16:39:44;2.87;;;2.17;;
44026;SDS011;29696;55.698;37.460;2023-02-28T16:42:32;3.57;;;2.40;;
44026;SDS011;29696;55.698;37.460;2023-02-28T16:44:57;4.33;;;2.53;;
44026;SDS011;29696;55.698;37.460;2023-02-28T16:47:23;3.20;;;2.23;;
44026;SDS011;29696;55.698;37.460;2023-02-28T16:49:52;6.33;;;2.67;;
44026;SDS011;29696;55.698;37.460;2023-02-28T16:52:18;3.20;;;2.37;;
44026;SDS011;29696;55.698;37.460;2023-02-28T16:54:45;3.57;;;2.47;;
44026;SDS011;29696;55.698;37.460;2023-02-28T16:57:19;2.87;;;2.03;;
44026;SDS011;29696;55.698;37.460;2023-02-28T16:59:49;3.40;;;2.40;;
44026;SDS011;29696;55.698;37.460;2023-02-28T17:02:18;3.70;;;2.43;;
44026;SDS011;29696;55.698;37.460;2023-02-28T17:04:45;3.47;;;2.27;;
44026;SDS011;29696;55.698;37.460;2023-02-28T17:07:12;3.43;;;3.00;;
44026;SDS011;29696;55.698;37.460;2023-02-28T17:09:42;4.57;;;2.47;;
44026;SDS011;29696;55.698;37.460;2023-02-28T17:12:09;3.10;;;2.37;;
44026;SDS011;29696;55.698;37.460;2023-02-28T17:14:37;3.13;;;2.83;;
44026;SDS011;29696;55.698;37.460;2023-02-28T17:17:04;5.30;;;3.30;;
44026;SDS011;29696;55.698;37.460;2023-02-28T17:19:32;4.83;;;2.97;;
44026;SDS011;29696;55.698;37.460;2023-02-28T17:21:59;4.17;;;1.97;;
44026;SDS011;29696;55.698;37.460;2023-02-28T17:24:26;1.77;;;1.57;;
44026;SDS011;29696;55.698;37.460;2023-02-28T17:26:52;3.40;;;2.37;;
44026;SDS011;29696;55.698;37.460;2023-02-28T17:29:19;4.13;;;2.40;;
44026;SDS011;29696;55.698;37.460;2023-02-28T17:31:47;3.17;;;2.13;;
44026;SDS011;29696;55.698;37.460;2023-02-28T17:34:14;3.70;;;1.53;;
44026;SDS011;29696;55.698;37.460;2023-02-28T17:36:46;2.17;;;1.87;;
44026;SDS011;29696;55.698;37.460;2023-02-28T17:39:13;5.57;;;3.50;;
44026;SDS011;29696;55.698;37.460;2023-02-28T17:41:41;12.67;;;4.07;;
44026;SDS011;29696;55.698;37.460;2023-02-28T17:44:08;3.70;;;3.40;;
44026;SDS011;29696;55.698;37.460;2023-02-28T17:46:34;7.70;;;3.00;;
44026;SDS011;29696;55.698;37.460;2023-02-28T17:49:02;11.87;;;3.67;;
44026;SDS011;29696;55.698;37.460;2023-02-28T17:51:28;5.80;;;3.37;;